createdAt,value
2018-10-05T00:02:25.310Z,102059.05
2018-10-05T00:07:18.019Z,102067.16
2018-10-05T00:12:10.752Z,102067.39
2018-10-05T00:17:03.482Z,102063.86
2018-10-05T00:21:56.137Z,102060.02
2018-10-05T00:26:48.832Z,102055.44
2018-10-05T00:31:41.563Z,102050.87
2018-10-05T00:36:34.279Z,102048.75
2018-10-05T00:41:26.967Z,102040.95
2018-10-05T00:46:19.639Z,102036.07
2018-10-05T00:51:12.267Z,102036.83
2018-10-05T00:56:05.026Z,102032.67
2018-10-05T01:00:57.693Z,102036.94
2018-10-05T01:05:50.381Z,102038.98
2018-10-05T01:10:43.087Z,102038.98
2018-10-05T01:15:35.847Z,102024.84
2018-10-05T01:20:28.466Z,102031.29
2018-10-05T01:25:21.106Z,102028.83
2018-10-05T01:30:13.799Z,102023.11
2018-10-05T01:35:06.628Z,102023.84
2018-10-05T01:39:59.295Z,102020.83
2018-10-05T01:44:52.028Z,102020.83
2018-10-05T01:49:44.773Z,102018.64
2018-10-05T01:54:37.503Z,102012.61
2018-10-05T01:59:30.210Z,102009.08
2018-10-05T02:04:22.961Z,102005.86
2018-10-05T02:09:15.628Z,102002.84
2018-10-05T02:14:08.299Z,102004.71
2018-10-05T02:19:00.914Z,101996.61
2018-10-05T02:23:53.557Z,101998.78
2018-10-05T02:28:46.247Z,101994.00
2018-10-05T02:33:38.882Z,101997.02
2018-10-05T02:38:31.749Z,101997.54
2018-10-05T02:43:24.345Z,101990.98
2018-10-05T02:48:17.002Z,101983.51
2018-10-05T02:53:09.666Z,101978.10
2018-10-05T02:58:02.324Z,101988.50
2018-10-05T03:02:54.953Z,101979.77
2018-10-05T03:07:47.729Z,101973.73
2018-10-05T03:12:40.372Z,101969.47
2018-10-05T03:17:33.035Z,101957.62
2018-10-05T03:22:25.755Z,101955.44
2018-10-05T03:27:18.568Z,101952.95
2018-10-05T03:32:11.182Z,101954.72
2018-10-05T03:37:03.817Z,101953.61
2018-10-05T03:41:56.414Z,101956.00
2018-10-05T03:46:49.125Z,101955.37
2018-10-05T03:51:41.776Z,101952.36
2018-10-05T03:56:34.458Z,101951.53
2018-10-05T04:01:27.085Z,101945.51
2018-10-05T04:06:19.914Z,101940.11
2018-10-05T04:11:12.558Z,101941.35
2018-10-05T04:16:05.222Z,101945.92
2018-10-05T04:20:57.878Z,101946.16
2018-10-05T04:25:50.632Z,101949.08
2018-10-05T04:30:43.314Z,101955.00
2018-10-05T04:35:36.042Z,101952.30
2018-10-05T04:40:28.820Z,101956.87
2018-10-05T04:45:21.666Z,101956.03
2018-10-05T04:50:14.362Z,101961.44
2018-10-05T04:55:07.047Z,101956.24
2018-10-05T04:59:59.803Z,101957.80
2018-10-05T05:04:52.678Z,101959.16
2018-10-05T05:09:45.403Z,101967.78
2018-10-05T05:14:38.193Z,101968.09
2018-10-05T05:19:30.938Z,101977.34
2018-10-05T05:24:23.586Z,101977.96
2018-10-05T05:29:16.256Z,101977.96
2018-10-05T05:34:08.919Z,101976.92
2018-10-05T05:39:01.485Z,101980.14
2018-10-05T05:43:54.187Z,101983.67
2018-10-05T05:48:46.889Z,101986.69
2018-10-05T05:53:39.659Z,101982.09
2018-10-05T05:58:32.423Z,101987.59
2018-10-05T06:03:25.074Z,101990.92
2018-10-05T06:08:17.880Z,101980.63
2018-10-05T06:13:10.512Z,101989.78
2018-10-05T06:18:03.187Z,101987.59
2018-10-05T06:22:55.961Z,101993.00
2018-10-05T06:27:48.688Z,101994.45
2018-10-05T06:32:41.566Z,101997.02
2018-10-05T06:37:34.282Z,101995.31
2018-10-05T06:42:27.591Z,101998.39
2018-10-05T06:47:20.279Z,101991.30
2018-10-05T06:52:12.992Z,101986.27
2018-10-05T06:57:05.741Z,101996.09
2018-10-05T07:01:58.613Z,102003.83
2018-10-05T07:06:51.159Z,102004.22
2018-10-05T07:11:43.838Z,102010.53
2018-10-05T07:16:36.481Z,102013.77
2018-10-05T07:21:29.441Z,102011.13
2018-10-05T07:26:22.189Z,102010.80
2018-10-05T07:31:14.896Z,102003.44
2018-10-05T07:36:07.602Z,102003.09
2018-10-05T07:41:00.333Z,101999.23
2018-10-05T07:45:52.946Z,101998.87
2018-10-05T07:50:45.621Z,101996.91
2018-10-05T07:55:38.206Z,101984.45
2018-10-05T08:00:30.807Z,101987.30
2018-10-05T08:05:23.430Z,101986.13
2018-10-05T08:10:16.115Z,101985.06
2018-10-05T08:15:08.790Z,101987.39
2018-10-05T08:20:01.414Z,101983.47
2018-10-05T08:24:54.074Z,101985.91
2018-10-05T08:29:46.692Z,101974.79
2018-10-05T08:34:39.551Z,101982.69
2018-10-05T08:39:32.103Z,101978.13
2018-10-05T08:44:24.794Z,101980.52
2018-10-05T08:49:17.455Z,101973.25
2018-10-05T08:54:10.038Z,101958.92
2018-10-05T08:59:02.660Z,101955.11
2018-10-05T09:03:55.291Z,101951.03
2018-10-05T09:08:48.110Z,101949.16
2018-10-05T09:13:40.850Z,101942.25
2018-10-05T09:18:33.530Z,101937.74
2018-10-05T09:23:26.242Z,101936.34
2018-10-05T09:28:18.853Z,101934.80
2018-10-05T09:33:11.480Z,101921.90
2018-10-05T09:38:04.180Z,101914.73
2018-10-05T09:42:56.861Z,101914.62
2018-10-05T09:47:49.486Z,101913.70
2018-10-05T09:52:42.090Z,101912.99
2018-10-05T09:57:34.777Z,101905.92
2018-10-05T10:02:33.292Z,101897.90
2018-10-05T10:07:26.065Z,101889.75
2018-10-05T10:12:18.648Z,101887.33
2018-10-05T10:17:11.296Z,101887.17
2018-10-05T10:22:03.938Z,101869.41
2018-10-05T10:26:56.518Z,101863.17
2018-10-05T10:31:49.227Z,101850.05
2018-10-05T10:41:41.206Z,101846.78
2018-10-05T10:46:34.352Z,101830.09
2018-10-05T10:51:27.182Z,101828.68
2018-10-05T10:56:19.920Z,101819.36
2018-10-05T11:01:12.551Z,101813.88
2018-10-05T11:06:05.202Z,101807.55
2018-10-05T11:10:57.897Z,101799.87
2018-10-05T11:15:50.862Z,101789.84
2018-10-05T11:20:43.529Z,101783.75
2018-10-05T11:25:36.127Z,101778.77
2018-10-05T11:30:28.689Z,101782.54
2018-10-05T11:35:21.377Z,101777.06
2018-10-05T11:40:14.118Z,101770.45
2018-10-05T11:45:06.746Z,101769.02
2018-10-05T11:49:59.499Z,101745.41
2018-10-05T11:54:52.528Z,101734.44
2018-10-05T11:59:45.168Z,101731.39
2018-10-05T12:04:37.774Z,101717.96
2018-10-05T12:09:30.710Z,101706.06
2018-10-05T12:14:23.489Z,101703.63
2018-10-05T12:19:16.074Z,101694.37
2018-10-05T12:24:08.726Z,101690.82
2018-10-05T12:29:01.340Z,101685.52
2018-10-05T12:33:54.122Z,101682.27
2018-10-05T12:38:46.927Z,101680.72
2018-10-05T12:43:39.860Z,101677.15
2018-10-05T12:48:32.779Z,101672.09
2018-10-05T12:53:25.535Z,101667.27
2018-10-05T12:58:18.300Z,101655.94
2018-10-05T13:03:11.073Z,101645.42
2018-10-05T13:08:03.798Z,101647.32
2018-10-05T13:12:56.447Z,101638.92
2018-10-05T13:17:49.387Z,101636.84
2018-10-05T13:22:42.156Z,101651.30
2018-10-05T13:27:34.913Z,101627.88
2018-10-05T13:32:27.489Z,101620.34
2018-10-05T13:37:20.358Z,101626.09
2018-10-05T13:42:12.958Z,101619.52
2018-10-05T13:47:05.549Z,101614.34
2018-10-05T13:51:58.142Z,101610.72
2018-10-05T13:56:51.151Z,101615.69
2018-10-05T14:01:43.788Z,101602.36
2018-10-05T14:06:36.421Z,101587.11
2018-10-05T14:11:29.018Z,101587.14
2018-10-05T14:16:21.678Z,101577.75
2018-10-05T14:21:14.454Z,101565.96
2018-10-05T14:26:07.062Z,101564.12
2018-10-05T14:30:59.730Z,101561.59
2018-10-05T14:35:52.349Z,101556.75
2018-10-05T14:40:44.998Z,101547.19
2018-10-05T14:45:37.665Z,101548.34
2018-10-05T14:50:30.313Z,101544.64
2018-10-05T14:55:22.985Z,101542.78
2018-10-05T15:00:15.622Z,101531.58
2018-10-05T15:05:08.302Z,101531.10
2018-10-05T15:10:00.914Z,101517.97
2018-10-05T15:14:53.627Z,101514.77
2018-10-05T15:19:46.304Z,101507.47
2018-10-05T15:24:39.122Z,101497.98
2018-10-05T15:29:32.637Z,101497.78
2018-10-05T15:34:25.374Z,101491.51
2018-10-05T15:39:18.102Z,101482.81
2018-10-05T15:44:10.721Z,101479.83
2018-10-05T15:49:03.291Z,101471.94
2018-10-05T15:53:55.939Z,101472.25
2018-10-05T15:58:48.858Z,101474.23
2018-10-05T16:03:41.533Z,101474.05
2018-10-05T16:08:34.181Z,101472.22
2018-10-05T16:13:26.842Z,101470.13
2018-10-05T16:18:19.607Z,101468.25
2018-10-05T16:23:12.212Z,101463.34
2018-10-05T16:28:04.858Z,101452.45
2018-10-05T16:32:57.467Z,101454.45
2018-10-05T16:37:51.317Z,101448.81
2018-10-05T16:42:44.002Z,101451.35
2018-10-05T16:47:36.611Z,101446.48
2018-10-05T16:52:29.304Z,101454.17
2018-10-05T16:57:21.965Z,101443.80
2018-10-05T17:02:14.554Z,101446.31
2018-10-05T17:07:07.243Z,101439.75
2018-10-05T17:12:00.087Z,101439.78
2018-10-05T17:16:52.817Z,101432.43
2018-10-05T17:21:45.458Z,101423.98
2018-10-05T17:26:38.071Z,101422.06
2018-10-05T17:31:30.690Z,101427.02
2018-10-05T17:36:23.479Z,101418.84
2018-10-05T17:41:16.180Z,101418.83
2018-10-05T17:46:08.751Z,101411.73
2018-10-05T17:51:01.680Z,101410.08
2018-10-05T17:55:54.732Z,101397.80
2018-10-05T18:00:47.553Z,101393.42
2018-10-05T18:05:40.202Z,101394.53
2018-10-05T18:10:33.004Z,101393.42
2018-10-05T18:15:25.716Z,101397.80
2018-10-05T18:20:18.474Z,101387.11
2018-10-05T18:25:11.072Z,101382.70
2018-10-05T18:30:04.079Z,101382.13
2018-10-05T18:34:56.774Z,101372.33
2018-10-05T18:39:49.459Z,101368.77
2018-10-05T18:44:42.058Z,101369.57
2018-10-05T18:49:34.694Z,101370.66
2018-10-05T18:54:27.508Z,101364.63
2018-10-05T18:59:20.111Z,101356.16
2018-10-05T19:04:12.795Z,101354.77
2018-10-05T19:09:06.070Z,101341.63
2018-10-05T19:13:58.735Z,101344.61
2018-10-05T19:18:51.424Z,101347.29
2018-10-05T19:23:44.075Z,101339.84
2018-10-05T19:28:36.753Z,101341.46
2018-10-05T19:33:29.383Z,101337.88
2018-10-05T19:38:22.032Z,101326.14
2018-10-05T19:43:14.604Z,101325.28
2018-10-05T19:48:07.212Z,101327.97
2018-10-05T19:52:59.890Z,101319.44
2018-10-05T19:57:52.566Z,101314.52
2018-10-05T20:02:45.206Z,101312.28
2018-10-05T20:07:38.022Z,101304.61
2018-10-05T20:12:30.671Z,101295.34
2018-10-05T20:17:23.367Z,101282.77
2018-10-05T20:22:16.026Z,101275.91
2018-10-05T20:27:08.691Z,101282.13
2018-10-05T20:32:01.397Z,101278.81
2018-10-05T20:36:54.269Z,101278.98
2018-10-05T20:41:46.750Z,101265.02
2018-10-05T20:46:39.391Z,101273.95
2018-10-05T20:51:35.058Z,101257.31
2018-10-05T20:56:27.861Z,101253.43
2018-10-05T21:01:20.562Z,101250.66
2018-10-05T21:06:13.219Z,101245.16
2018-10-05T21:11:05.877Z,101252.68
2018-10-05T21:15:58.627Z,101248.76
2018-10-05T21:20:51.323Z,101248.94
2018-10-05T21:25:44.062Z,101242.36
2018-10-05T21:30:36.724Z,101231.42
2018-10-05T21:35:29.357Z,101223.70
2018-10-05T21:40:23.107Z,101229.64
2018-10-05T21:45:15.874Z,101224.13
2018-10-05T21:50:08.487Z,101218.41
2018-10-05T21:55:01.169Z,101213.48
2018-10-05T21:59:53.812Z,101209.03
2018-10-05T22:04:46.459Z,101202.73
2018-10-05T22:09:39.122Z,101191.59
2018-10-05T22:14:31.798Z,101183.41
2018-10-05T22:19:24.446Z,101176.30
2018-10-05T22:24:17.102Z,101166.46
2018-10-05T22:29:09.779Z,101163.91
2018-10-05T22:34:02.444Z,101157.62
2018-10-05T22:38:55.157Z,101165.98
2018-10-05T22:43:48.351Z,101165.15
2018-10-05T22:48:40.947Z,101164.24
2018-10-05T22:53:33.593Z,101164.36
2018-10-05T22:58:26.282Z,101163.95
2018-10-05T23:03:18.870Z,101164.97
2018-10-05T23:08:11.472Z,101150.66
2018-10-05T23:13:04.137Z,101155.40
2018-10-05T23:17:56.843Z,101153.41
2018-10-05T23:22:49.559Z,101146.53
2018-10-05T23:27:42.222Z,101143.97
2018-10-05T23:32:34.903Z,101134.67
2018-10-05T23:37:27.551Z,101141.67
2018-10-05T23:42:20.224Z,101141.09
2018-10-05T23:47:12.867Z,101140.72
2018-10-05T23:52:22.121Z,101135.27
2018-10-05T23:57:14.795Z,101130.88
